createdAt,value
2023-01-03T00:02:16.492Z,3.97
2023-01-03T00:04:49.779Z,6.30
2023-01-03T00:07:34.244Z,10.27
2023-01-03T00:10:06.083Z,5.50
2023-01-03T00:12:33.723Z,4.95
2023-01-03T00:15:07.738Z,3.22
2023-01-03T00:17:37.991Z,3.95
2023-01-03T00:20:10.482Z,3.85
2023-01-03T00:22:40.548Z,2.45
2023-01-03T00:25:11.467Z,2.13
2023-01-03T00:27:41.352Z,2.47
2023-01-03T00:30:15.204Z,2.53
2023-01-03T00:32:45.088Z,2.40
2023-01-03T00:35:14.964Z,2.05
2023-01-03T00:37:44.791Z,2.35
2023-01-03T00:40:15.368Z,2.30
2023-01-03T00:42:57.749Z,1.95
2023-01-03T00:45:35.065Z,2.30
2023-01-03T00:48:05.490Z,1.98
2023-01-03T00:50:35.408Z,2.53
2023-01-03T00:53:05.285Z,1.80
2023-01-03T00:55:37.741Z,2.25
2023-01-03T00:58:07.634Z,1.75
2023-01-03T01:00:40.094Z,2.10
2023-01-03T01:03:10.412Z,1.92
2023-01-03T01:05:40.373Z,2.40
2023-01-03T01:08:10.217Z,2.10
2023-01-03T01:11:01.805Z,1.83
2023-01-03T01:13:32.212Z,2.08
2023-01-03T01:16:08.460Z,1.90
2023-01-03T01:18:39.413Z,2.15
2023-01-03T01:21:10.905Z,1.98
2023-01-03T01:23:43.261Z,1.92
2023-01-03T01:26:17.985Z,2.17
2023-01-03T01:31:23.465Z,1.77
2023-01-03T01:33:54.361Z,2.45
2023-01-03T01:36:27.021Z,2.25
2023-01-03T01:38:59.117Z,2.25
2023-01-03T01:41:43.564Z,1.88
2023-01-03T01:44:47.361Z,2.00
2023-01-03T01:47:31.027Z,1.70
2023-01-03T01:50:14.284Z,1.88
2023-01-03T01:52:49.145Z,1.70
2023-01-03T01:55:24.094Z,1.42
2023-01-03T01:57:54.524Z,1.80
2023-01-03T02:00:24.975Z,1.65
2023-01-03T02:02:58.405Z,1.70
2023-01-03T02:05:29.659Z,1.75
2023-01-03T02:08:00.679Z,1.67
2023-01-03T02:10:53.000Z,1.60
2023-01-03T02:13:33.342Z,1.58
2023-01-03T02:16:32.261Z,1.02
2023-01-03T02:19:28.043Z,1.05
2023-01-03T02:22:27.926Z,1.60
2023-01-03T02:25:36.519Z,2.42
2023-01-03T02:28:52.534Z,1.52
2023-01-03T02:31:31.047Z,1.45
2023-01-03T02:34:07.514Z,1.45
2023-01-03T02:36:50.151Z,1.40
2023-01-03T02:39:29.843Z,1.48
2023-01-03T02:42:17.905Z,1.50
2023-01-03T02:44:59.604Z,1.42
2023-01-03T02:47:33.266Z,2.67
2023-01-03T02:50:05.450Z,1.50
2023-01-03T02:52:35.815Z,1.38
2023-01-03T02:55:12.438Z,1.60
2023-01-03T02:57:47.961Z,1.30
2023-01-03T03:00:20.814Z,1.50
2023-01-03T03:02:56.769Z,1.63
2023-01-03T03:05:31.688Z,1.50
2023-01-03T03:08:01.579Z,2.00
2023-01-03T03:10:45.037Z,1.65
2023-01-03T03:13:27.586Z,1.58
2023-01-03T03:16:02.390Z,1.50
2023-01-03T03:21:25.005Z,1.48
2023-01-03T03:24:09.903Z,1.58
2023-01-03T03:26:43.687Z,1.45
2023-01-03T03:29:15.788Z,1.35
2023-01-03T03:31:49.940Z,1.70
2023-01-03T03:34:27.351Z,1.60
2023-01-03T03:37:03.329Z,1.50
2023-01-03T03:39:47.907Z,1.40
2023-01-03T03:42:38.410Z,1.63
2023-01-03T03:45:18.994Z,1.60
2023-01-03T03:47:54.265Z,1.60
2023-01-03T03:50:34.036Z,2.00
2023-01-03T03:53:10.104Z,1.60
2023-01-03T03:55:43.940Z,1.80
2023-01-03T03:58:19.965Z,1.48
2023-01-03T04:00:54.953Z,1.95
2023-01-03T04:03:26.622Z,1.52
2023-01-03T04:06:04.973Z,1.70
2023-01-03T04:08:35.407Z,1.88
2023-01-03T04:11:08.150Z,2.00
2023-01-03T04:13:40.314Z,1.67
2023-01-03T04:16:10.759Z,1.90
2023-01-03T04:18:40.740Z,1.65
2023-01-03T04:21:18.887Z,2.60
2023-01-03T04:23:50.779Z,1.95
2023-01-03T04:26:20.793Z,1.88
2023-01-03T04:28:50.864Z,3.83
2023-01-03T04:31:20.787Z,5.82
2023-01-03T04:33:50.633Z,6.72
2023-01-03T04:36:23.334Z,3.55
2023-01-03T04:38:53.237Z,6.40
2023-01-03T04:41:23.170Z,2.42
2023-01-03T04:44:02.514Z,2.53
2023-01-03T04:46:33.856Z,2.90
2023-01-03T04:49:04.109Z,2.17
2023-01-03T04:51:37.227Z,2.40
2023-01-03T04:54:08.804Z,2.05
2023-01-03T04:56:40.971Z,2.10
2023-01-03T04:59:11.040Z,1.77
2023-01-03T05:01:52.308Z,2.17
2023-01-03T05:04:22.740Z,2.22
2023-01-03T05:06:55.934Z,1.80
2023-01-03T05:09:28.099Z,1.98
2023-01-03T05:11:58.646Z,2.00
2023-01-03T05:14:28.545Z,1.70
2023-01-03T05:16:58.438Z,1.83
2023-01-03T05:19:28.354Z,1.80
2023-01-03T05:22:13.319Z,1.80
2023-01-03T05:24:55.690Z,1.90
2023-01-03T05:27:26.253Z,2.10
2023-01-03T05:29:56.789Z,1.90
2023-01-03T05:32:28.139Z,2.10
2023-01-03T05:34:57.984Z,2.13
2023-01-03T05:37:30.413Z,1.90
2023-01-03T05:40:00.252Z,1.83
2023-01-03T05:42:30.348Z,2.13
2023-01-03T05:45:00.209Z,1.85
2023-01-03T05:47:30.134Z,2.08
2023-01-03T05:49:59.977Z,2.00
2023-01-03T05:52:32.405Z,2.30
2023-01-03T05:55:02.282Z,2.20
2023-01-03T05:57:35.511Z,2.03
2023-01-03T06:00:06.576Z,2.63
2023-01-03T06:02:36.569Z,2.00
2023-01-03T06:05:06.869Z,2.33
2023-01-03T06:07:39.304Z,2.30
2023-01-03T06:10:11.503Z,2.55
2023-01-03T06:12:41.334Z,2.72
2023-01-03T06:15:12.583Z,2.95
2023-01-03T06:17:54.913Z,2.60
2023-01-03T06:20:24.966Z,2.45
2023-01-03T06:22:58.642Z,2.60
2023-01-03T06:25:31.210Z,2.55
2023-01-03T06:28:01.101Z,2.63
2023-01-03T06:30:30.970Z,2.47
2023-01-03T06:33:00.848Z,2.80
2023-01-03T06:35:30.677Z,2.55
2023-01-03T06:38:03.112Z,2.97
2023-01-03T06:40:39.354Z,2.55
2023-01-03T06:43:12.298Z,2.45
2023-01-03T06:45:54.744Z,2.42
2023-01-03T06:48:37.171Z,2.60
2023-01-03T06:51:19.954Z,2.40
2023-01-03T06:53:52.535Z,2.63
2023-01-03T06:56:23.232Z,2.88
2023-01-03T06:58:53.067Z,3.00
2023-01-03T07:01:23.144Z,2.55
2023-01-03T07:03:53.203Z,2.72
2023-01-03T07:06:23.067Z,2.83
2023-01-03T07:08:55.492Z,2.75
2023-01-03T07:11:26.897Z,3.15
2023-01-03T07:14:00.393Z,2.80
2023-01-03T07:16:32.414Z,3.42
2023-01-03T07:19:02.982Z,3.05
2023-01-03T07:21:34.358Z,3.55
2023-01-03T07:24:09.367Z,2.67
2023-01-03T07:26:39.238Z,3.45
2023-01-03T07:29:12.535Z,2.80
2023-01-03T07:31:43.457Z,2.70
2023-01-03T07:34:13.365Z,2.92
2023-01-03T07:36:43.213Z,3.10
2023-01-03T07:39:15.631Z,4.00
2023-01-03T07:41:57.993Z,3.13
2023-01-03T07:44:27.838Z,3.30
2023-01-03T07:46:57.768Z,2.95
2023-01-03T07:49:27.692Z,2.80
2023-01-03T07:51:57.556Z,3.30
2023-01-03T07:54:29.986Z,2.80
2023-01-03T07:56:59.903Z,2.85
2023-01-03T07:59:30.288Z,2.65
2023-01-03T08:02:00.284Z,3.47
2023-01-03T08:04:30.243Z,2.72
2023-01-03T08:07:00.359Z,3.60
2023-01-03T08:09:45.334Z,4.10
2023-01-03T08:12:27.699Z,4.07
2023-01-03T08:14:57.544Z,3.50
2023-01-03T08:17:27.418Z,3.58
2023-01-03T08:19:57.252Z,3.85
2023-01-03T08:22:27.103Z,3.90
2023-01-03T08:24:59.562Z,3.83
2023-01-03T08:27:29.408Z,4.15
2023-01-03T08:29:59.231Z,4.32
2023-01-03T08:32:29.402Z,4.60
2023-01-03T08:35:00.113Z,4.55
2023-01-03T08:37:31.551Z,5.07
2023-01-03T08:40:08.063Z,5.25
2023-01-03T08:42:37.946Z,4.05
2023-01-03T08:45:13.719Z,4.30
2023-01-03T08:47:44.415Z,3.95
2023-01-03T08:50:15.802Z,4.32
2023-01-03T08:52:45.747Z,4.05
2023-01-03T08:55:18.261Z,3.85
2023-01-03T08:57:48.149Z,4.00
2023-01-03T09:00:19.207Z,4.28
2023-01-03T09:02:49.242Z,4.95
2023-01-03T09:05:19.353Z,4.13
2023-01-03T09:07:49.242Z,4.00
2023-01-03T09:10:21.779Z,4.38
2023-01-03T09:12:51.940Z,4.35
2023-01-03T09:15:22.422Z,3.97
2023-01-03T09:17:52.327Z,4.43
2023-01-03T09:20:22.341Z,3.88
2023-01-03T09:22:52.511Z,6.93
2023-01-03T09:25:24.966Z,4.00
2023-01-03T09:27:54.864Z,4.05
2023-01-03T09:30:24.738Z,3.83
2023-01-03T09:32:54.746Z,3.85
2023-01-03T09:35:24.657Z,3.80
2023-01-03T09:37:54.546Z,3.85
2023-01-03T09:40:27.522Z,8.80
2023-01-03T09:43:09.952Z,3.53
2023-01-03T09:45:40.253Z,4.05
2023-01-03T09:48:10.437Z,5.07
2023-01-03T09:51:15.911Z,4.28
2023-01-03T09:53:51.970Z,4.28
2023-01-03T09:56:37.252Z,5.47
2023-01-03T09:59:27.785Z,11.18
2023-01-03T10:02:24.717Z,13.60
2023-01-03T10:05:33.050Z,6.80
2023-01-03T10:08:40.739Z,2.72
2023-01-03T10:11:12.973Z,3.78
2023-01-03T10:14:08.093Z,3.35
2023-01-03T10:16:50.258Z,2.97
2023-01-03T10:19:45.682Z,2.83
2023-01-03T10:22:19.128Z,3.53
2023-01-03T10:24:51.609Z,3.30
2023-01-03T10:27:25.304Z,3.17
2023-01-03T10:30:03.963Z,2.67
2023-01-03T10:32:55.045Z,2.50
2023-01-03T10:35:26.919Z,2.47
2023-01-03T10:37:59.435Z,2.67
2023-01-03T10:40:38.269Z,3.17
2023-01-03T10:43:16.090Z,3.22
2023-01-03T10:46:00.862Z,3.08
2023-01-03T10:49:17.030Z,2.50
2023-01-03T10:51:42.280Z,2.33
2023-01-03T10:54:21.812Z,2.20
2023-01-03T10:56:52.428Z,3.08
2023-01-03T10:59:27.116Z,3.20
2023-01-03T11:02:05.505Z,2.80
2023-01-03T11:04:35.785Z,2.53
2023-01-03T11:07:16.915Z,2.40
2023-01-03T11:09:52.410Z,2.97
2023-01-03T11:12:30.483Z,3.28
2023-01-03T11:15:01.371Z,4.00
2023-01-03T11:17:33.846Z,3.67
2023-01-03T11:20:03.782Z,4.55
2023-01-03T11:22:41.910Z,3.10
2023-01-03T11:25:42.252Z,3.40
2023-01-03T11:28:59.329Z,3.50
2023-01-03T11:31:41.151Z,4.10
2023-01-03T11:35:11.578Z,3.28
2023-01-03T11:37:36.933Z,3.95
2023-01-03T11:40:17.876Z,3.50
2023-01-03T11:43:07.885Z,3.97
2023-01-03T11:46:10.623Z,3.78
2023-01-03T11:49:05.488Z,4.25
2023-01-03T11:51:47.777Z,4.30
2023-01-03T11:54:40.381Z,4.20
2023-01-03T11:57:26.169Z,4.50
2023-01-03T12:00:09.481Z,3.90
2023-01-03T12:03:03.992Z,3.42
2023-01-03T12:05:54.636Z,4.32
2023-01-03T12:09:03.591Z,3.38
2023-01-03T12:11:50.194Z,3.30
2023-01-03T12:14:24.896Z,3.22
2023-01-03T12:17:01.018Z,3.20
2023-01-03T12:19:38.667Z,2.42
2023-01-03T12:22:16.661Z,3.65
2023-01-03T12:25:00.724Z,3.30
2023-01-03T12:27:38.651Z,3.75
2023-01-03T12:30:25.681Z,4.07
2023-01-03T12:33:03.474Z,7.40
2023-01-03T12:35:40.886Z,6.95
2023-01-03T12:38:13.785Z,3.92
2023-01-03T12:40:56.497Z,5.35
2023-01-03T12:43:35.373Z,4.80
2023-01-03T12:46:13.260Z,10.25
2023-01-03T12:48:57.758Z,5.13
2023-01-03T12:51:28.253Z,6.60
2023-01-03T12:54:17.976Z,4.78
2023-01-03T12:57:21.788Z,3.95
2023-01-03T13:00:23.602Z,3.58
2023-01-03T13:02:59.769Z,3.60
2023-01-03T13:05:38.645Z,3.20
2023-01-03T13:08:15.844Z,2.92
2023-01-03T13:10:52.280Z,3.05
2023-01-03T13:13:25.177Z,3.20
2023-01-03T13:15:56.773Z,3.40
2023-01-03T13:18:47.498Z,3.20
2023-01-03T13:21:58.572Z,3.33
2023-01-03T13:24:46.105Z,2.67
2023-01-03T13:27:38.590Z,3.30
2023-01-03T13:30:27.951Z,3.50
2023-01-03T13:33:16.682Z,3.30
2023-01-03T13:36:02.814Z,3.50
2023-01-03T13:38:35.768Z,3.28
2023-01-03T13:41:18.247Z,3.13
2023-01-03T13:43:53.317Z,3.28
2023-01-03T13:46:30.332Z,3.90
2023-01-03T13:49:02.564Z,4.10
2023-01-03T13:51:52.367Z,3.65
2023-01-03T13:55:02.796Z,3.05
2023-01-03T13:57:54.269Z,3.20
2023-01-03T14:00:26.926Z,3.55
2023-01-03T14:03:38.389Z,4.05
2023-01-03T14:06:53.762Z,3.10
2023-01-03T14:09:47.049Z,3.07
2023-01-03T14:13:18.789Z,3.35
2023-01-03T14:15:50.345Z,2.92
2023-01-03T14:18:30.160Z,2.60
2023-01-03T14:21:02.049Z,3.40
2023-01-03T14:23:59.275Z,3.65
2023-01-03T14:26:22.368Z,3.65
2023-01-03T14:28:55.231Z,2.90
2023-01-03T14:31:29.549Z,3.92
2023-01-03T14:34:05.938Z,3.65
2023-01-03T14:36:48.613Z,3.30
2023-01-03T14:42:02.601Z,3.50
2023-01-03T14:44:32.823Z,3.10
2023-01-03T14:47:06.048Z,3.33
2023-01-03T14:49:45.738Z,3.70
2023-01-03T14:52:31.479Z,3.67
2023-01-03T14:55:07.550Z,4.00
2023-01-03T14:57:41.864Z,3.70
2023-01-03T15:00:24.235Z,4.07
2023-01-03T15:03:00.667Z,3.97
2023-01-03T15:05:38.408Z,4.75
2023-01-03T15:08:20.714Z,3.83
2023-01-03T15:10:54.512Z,4.40
2023-01-03T15:13:32.941Z,4.30
2023-01-03T15:16:05.708Z,4.40
2023-01-03T15:18:38.424Z,4.07
2023-01-03T15:21:16.263Z,4.00
2023-01-03T15:23:48.814Z,4.90
2023-01-03T15:26:25.759Z,5.05
2023-01-03T15:28:57.880Z,7.38
2023-01-03T15:31:39.111Z,7.15
2023-01-03T15:34:18.803Z,6.65
2023-01-03T15:37:04.759Z,9.00
2023-01-03T15:39:43.989Z,7.45
2023-01-03T15:42:50.283Z,10.90
2023-01-03T15:45:25.501Z,11.55
2023-01-03T15:48:00.175Z,10.50
2023-01-03T15:50:42.973Z,12.95
2023-01-03T15:53:27.101Z,12.45
2023-01-03T15:56:01.839Z,11.30
2023-01-03T16:01:03.533Z,10.25
2023-01-03T16:03:36.473Z,9.75
2023-01-03T16:06:06.991Z,10.52
2023-01-03T16:08:42.545Z,9.50
2023-01-03T16:11:20.114Z,9.70
2023-01-03T16:13:55.553Z,10.27
2023-01-03T16:16:29.258Z,9.65
2023-01-03T16:18:59.758Z,11.35
2023-01-03T16:21:30.955Z,10.77
2023-01-03T16:24:03.382Z,10.65
2023-01-03T16:26:33.252Z,10.40
2023-01-03T16:29:03.089Z,10.40
2023-01-03T16:31:36.022Z,11.02
2023-01-03T16:34:09.053Z,13.45
2023-01-03T16:36:42.671Z,13.18
2023-01-03T16:39:19.533Z,13.20
2023-01-03T16:42:02.714Z,12.55
2023-01-03T16:44:32.553Z,11.13
2023-01-03T16:47:02.583Z,11.70
2023-01-03T16:49:35.309Z,12.55
2023-01-03T16:52:06.022Z,11.77
2023-01-03T16:54:38.666Z,13.63
2023-01-03T16:57:08.501Z,13.95
2023-01-03T16:59:38.377Z,13.90
2023-01-03T17:02:08.383Z,12.50
2023-01-03T17:04:38.426Z,10.82
2023-01-03T17:07:08.396Z,16.80
2023-01-03T17:09:40.857Z,18.88
2023-01-03T17:12:15.415Z,15.77
2023-01-03T17:14:45.288Z,15.48
2023-01-03T17:17:21.270Z,18.83
2023-01-03T17:20:07.784Z,18.13
2023-01-03T17:22:37.836Z,17.10
2023-01-03T17:25:13.788Z,18.45
2023-01-03T17:27:43.803Z,21.00
2023-01-03T17:30:23.055Z,21.65
2023-01-03T17:32:53.116Z,20.10
2023-01-03T17:35:23.025Z,19.60
2023-01-03T17:40:48.332Z,20.58
2023-01-03T17:43:23.119Z,23.67
2023-01-03T17:48:50.672Z,24.77
2023-01-03T17:51:21.107Z,28.00
2023-01-03T17:53:52.033Z,23.85
2023-01-03T17:56:24.500Z,22.60
2023-01-03T17:58:56.457Z,17.23
2023-01-03T18:01:26.884Z,17.05
2023-01-03T18:03:56.828Z,16.90
2023-01-03T18:06:28.007Z,18.08
2023-01-03T18:08:58.449Z,17.13
2023-01-03T18:11:30.991Z,15.55
2023-01-03T18:14:00.877Z,15.25
2023-01-03T18:16:30.795Z,17.63
2023-01-03T18:19:00.712Z,18.67
2023-01-03T18:21:30.627Z,16.83
2023-01-03T18:24:04.745Z,21.17
2023-01-03T18:26:41.345Z,17.92
2023-01-03T18:29:16.299Z,17.30
2023-01-03T18:34:17.032Z,17.80
2023-01-03T18:36:52.876Z,17.05
2023-01-03T18:39:29.848Z,18.10
2023-01-03T18:42:22.295Z,16.77
2023-01-03T18:44:52.147Z,19.15
2023-01-03T18:47:22.006Z,16.85
2023-01-03T18:49:52.000Z,18.08
2023-01-03T18:52:27.346Z,19.20
2023-01-03T18:54:57.565Z,19.98
2023-01-03T18:57:30.191Z,21.33
2023-01-03T19:00:00.199Z,21.77
2023-01-03T19:02:31.983Z,24.50
2023-01-03T19:05:01.898Z,20.35
2023-01-03T19:07:35.773Z,15.88
2023-01-03T19:10:07.806Z,14.77
2023-01-03T19:12:42.533Z,15.98
2023-01-03T19:17:48.797Z,15.07
2023-01-03T19:20:24.903Z,22.30
2023-01-03T19:22:57.904Z,19.95
2023-01-03T19:25:31.376Z,19.13
2023-01-03T19:28:07.284Z,20.95
2023-01-03T19:30:41.441Z,19.85
2023-01-03T19:33:16.925Z,20.33
2023-01-03T19:35:47.090Z,23.55
2023-01-03T19:38:17.135Z,22.45
2023-01-03T19:40:48.091Z,21.58
2023-01-03T19:43:24.932Z,21.20
2023-01-03T19:45:54.842Z,21.60
2023-01-03T19:48:27.637Z,19.17
2023-01-03T19:50:57.717Z,19.02
2023-01-03T19:53:27.543Z,18.00
2023-01-03T19:55:57.470Z,14.88
2023-01-03T19:58:32.891Z,14.70
2023-01-03T20:01:03.274Z,14.52
2023-01-03T20:03:39.212Z,14.73
2023-01-03T20:06:12.915Z,13.90
2023-01-03T20:08:43.124Z,14.25
2023-01-03T20:11:19.837Z,13.77
2023-01-03T20:13:52.978Z,13.63
2023-01-03T20:16:23.795Z,16.63
2023-01-03T20:18:53.905Z,15.13
2023-01-03T20:21:28.001Z,14.80
2023-01-03T20:24:01.687Z,16.15
2023-01-03T20:26:34.406Z,19.45
2023-01-03T20:29:06.970Z,17.60
2023-01-03T20:31:37.092Z,17.25
2023-01-03T20:34:09.763Z,16.40
2023-01-03T20:36:43.992Z,15.68
2023-01-03T20:39:27.275Z,14.80
2023-01-03T20:42:03.284Z,15.57
2023-01-03T20:44:36.256Z,14.55
2023-01-03T20:47:07.440Z,14.77
2023-01-03T20:49:38.251Z,15.85
2023-01-03T20:52:08.372Z,13.52
2023-01-03T20:54:38.222Z,14.60
2023-01-03T20:57:16.679Z,13.60
2023-01-03T20:59:51.475Z,12.85
2023-01-03T21:04:51.286Z,12.90
2023-01-03T21:07:51.442Z,12.05
2023-01-03T21:10:26.711Z,12.68
2023-01-03T21:12:56.617Z,12.30
2023-01-03T21:15:29.090Z,15.93
2023-01-03T21:17:58.945Z,15.65
2023-01-03T21:20:31.833Z,17.80
2023-01-03T21:23:02.183Z,18.50
2023-01-03T21:25:35.251Z,15.38
2023-01-03T21:28:06.444Z,14.70
2023-01-03T21:30:38.950Z,12.20
2023-01-03T21:33:09.013Z,11.75
2023-01-03T21:35:41.134Z,10.90
2023-01-03T21:38:12.597Z,10.05
2023-01-03T21:40:42.477Z,11.48
2023-01-03T21:43:13.195Z,11.52
2023-01-03T21:45:50.712Z,12.05
2023-01-03T21:48:21.570Z,11.60
2023-01-03T21:50:52.526Z,11.40
2023-01-03T21:53:24.502Z,12.05
2023-01-03T21:55:54.460Z,11.02
2023-01-03T21:58:24.846Z,11.88
2023-01-03T22:00:57.425Z,10.80
2023-01-03T22:03:39.855Z,10.32
2023-01-03T22:06:12.707Z,9.65
2023-01-03T22:08:43.403Z,10.13
2023-01-03T22:11:15.031Z,9.43
2023-01-03T22:13:45.457Z,9.10
2023-01-03T22:16:19.000Z,9.60
2023-01-03T22:18:48.876Z,9.82
2023-01-03T22:21:19.087Z,8.88
2023-01-03T22:23:48.992Z,9.82
2023-01-03T22:26:19.513Z,8.25
2023-01-03T22:28:50.597Z,8.10
2023-01-03T22:31:24.044Z,9.02
2023-01-03T22:33:54.059Z,9.27
2023-01-03T22:36:23.929Z,8.10
2023-01-03T22:38:55.639Z,8.82
2023-01-03T22:41:25.490Z,8.25
2023-01-03T22:43:55.961Z,8.32
2023-01-03T22:46:28.430Z,8.57
2023-01-03T22:48:58.753Z,8.00
2023-01-03T22:51:28.707Z,7.90
2023-01-03T22:53:58.617Z,8.02
2023-01-03T22:56:28.482Z,7.57
2023-01-03T22:58:58.377Z,8.45
2023-01-03T23:01:31.612Z,7.93
2023-01-03T23:04:03.782Z,7.22
2023-01-03T23:06:36.342Z,8.30
2023-01-03T23:09:07.515Z,7.32
2023-01-03T23:11:49.869Z,8.10
2023-01-03T23:14:22.608Z,8.40
2023-01-03T23:16:56.753Z,9.13
2023-01-03T23:19:29.256Z,8.10
2023-01-03T23:21:59.132Z,7.65
2023-01-03T23:24:28.979Z,7.70
2023-01-03T23:26:58.825Z,7.25
2023-01-03T23:29:28.677Z,7.93
2023-01-03T23:32:01.132Z,7.28
2023-01-03T23:34:31.024Z,7.78
2023-01-03T23:37:00.869Z,7.72
2023-01-03T23:39:30.964Z,7.65
2023-01-03T23:42:00.810Z,7.60
2023-01-03T23:44:32.839Z,8.27
2023-01-03T23:47:11.405Z,7.63
2023-01-03T23:49:42.336Z,7.70
2023-01-03T23:52:12.526Z,7.30
2023-01-03T23:54:42.373Z,7.63
2023-01-03T23:57:12.269Z,8.27
2023-01-03T23:59:42.116Z,7.47
